createdAt,value
2023-04-20T05:00:59.774Z,12.00
2023-04-20T05:06:03.126Z,11.90
2023-04-20T05:11:06.631Z,11.90
2023-04-20T05:16:11.440Z,11.70
2023-04-20T05:21:14.809Z,11.60
2023-04-20T05:26:18.292Z,10.30
2023-04-20T05:31:23.006Z,12.10
2023-04-20T05:36:26.364Z,11.50
2023-04-20T05:41:29.837Z,11.50
2023-04-20T05:46:34.501Z,11.30
2023-04-20T05:51:39.200Z,11.50
2023-04-20T05:56:42.485Z,11.40
2023-04-20T06:01:47.235Z,11.40
2023-04-20T06:06:51.214Z,11.50
2023-04-20T06:11:54.580Z,11.60
2023-04-20T06:16:59.239Z,11.80
2023-04-20T06:22:06.376Z,12.00
2023-04-20T06:27:09.673Z,12.10
2023-04-20T06:32:14.455Z,12.10
2023-04-20T06:37:17.935Z,12.30
2023-04-20T06:42:21.270Z,12.30
2023-04-20T06:47:31.451Z,12.40
2023-04-20T06:52:34.853Z,12.40
2023-04-20T06:57:38.678Z,12.50
2023-04-20T07:02:47.569Z,12.70
2023-04-20T07:07:51.376Z,12.80
2023-04-20T07:12:55.061Z,12.80
2023-04-20T07:18:00.346Z,12.90
2023-04-20T07:23:03.733Z,13.00
2023-04-20T07:28:07.067Z,13.10
2023-04-20T07:33:11.977Z,13.20
2023-04-20T07:38:16.638Z,13.30
2023-04-20T07:43:20.030Z,13.40
2023-04-20T07:48:24.680Z,13.50
2023-04-20T07:53:28.105Z,13.60
2023-04-20T07:58:31.411Z,13.70
2023-04-20T08:03:36.670Z,14.00
2023-04-20T08:08:40.314Z,14.20
2023-04-20T08:13:43.625Z,14.40
2023-04-20T08:18:48.352Z,14.60
2023-04-20T08:23:51.868Z,14.70
2023-04-20T08:28:55.212Z,14.90
2023-04-20T08:34:00.313Z,15.00
2023-04-20T08:39:07.685Z,15.10
2023-04-20T08:44:11.207Z,15.40
2023-04-20T08:49:16.414Z,15.50
2023-04-20T08:54:20.038Z,15.80
2023-04-20T08:59:23.518Z,16.30
2023-04-20T09:04:28.397Z,17.10
2023-04-20T09:09:31.944Z,17.90
2023-04-20T09:14:43.695Z,18.80
2023-04-20T09:19:54.599Z,19.70
2023-04-20T09:24:57.936Z,20.50
2023-04-20T09:30:01.700Z,21.20
2023-04-20T09:35:07.683Z,22.00
2023-04-20T09:40:11.516Z,22.50
2023-04-20T09:45:16.406Z,22.90
2023-04-20T09:50:29.027Z,23.20
2023-04-20T09:55:38.798Z,23.70
2023-04-20T10:00:43.191Z,24.10
2023-04-20T10:05:47.855Z,24.40
2023-04-20T10:10:51.578Z,24.60
2023-04-20T10:15:54.950Z,25.10
2023-04-20T10:21:09.186Z,25.40
2023-04-20T10:26:12.554Z,25.80
2023-04-20T10:31:17.105Z,26.10
2023-04-20T10:36:25.564Z,26.50
2023-04-20T10:41:28.872Z,26.90
2023-04-20T10:46:32.607Z,27.10
2023-04-20T10:51:37.504Z,27.30
2023-04-20T10:56:41.905Z,27.40
2023-04-20T11:01:46.714Z,27.50
2023-04-20T11:06:51.757Z,27.50
2023-04-20T11:12:02.102Z,27.70
2023-04-20T11:17:05.938Z,27.90
2023-04-20T11:22:10.687Z,28.00
2023-04-20T11:27:20.940Z,28.20
2023-04-20T11:32:24.675Z,28.50
2023-04-20T11:37:29.898Z,28.80
2023-04-20T11:42:33.312Z,28.80
2023-04-20T11:47:36.623Z,28.80
2023-04-20T11:52:41.569Z,28.90
2023-04-20T11:57:44.967Z,28.90
2023-04-20T12:02:48.490Z,29.30
2023-04-20T12:07:53.374Z,29.30
2023-04-20T12:12:57.328Z,29.40
2023-04-20T12:18:00.804Z,29.50
2023-04-20T12:23:05.561Z,29.40
2023-04-20T12:28:08.870Z,29.50
2023-04-20T12:33:12.258Z,29.50
2023-04-20T12:38:17.031Z,29.60
2023-04-20T12:43:20.545Z,29.60
2023-04-20T12:48:23.946Z,29.60
2023-04-20T12:53:28.675Z,29.60
2023-04-20T12:58:32.060Z,29.90
2023-04-20T13:03:35.635Z,29.90
2023-04-20T13:08:40.490Z,29.80
2023-04-20T13:13:43.842Z,29.60
2023-04-20T13:18:47.207Z,29.40
2023-04-20T13:23:52.799Z,29.30
2023-04-20T13:28:58.468Z,29.20
2023-04-20T13:34:01.780Z,29.20
2023-04-20T13:39:06.520Z,29.30
2023-04-20T13:44:15.866Z,29.20
2023-04-20T13:49:22.651Z,29.10
2023-04-20T13:54:27.589Z,28.80
2023-04-20T13:59:30.988Z,28.60
2023-04-20T14:04:34.408Z,28.50
2023-04-20T14:09:39.133Z,28.30
2023-04-20T14:14:42.507Z,28.00
2023-04-20T14:19:45.933Z,27.80
2023-04-20T14:24:50.807Z,27.70
2023-04-20T14:29:54.176Z,27.50
2023-04-20T14:34:57.516Z,27.20
2023-04-20T14:40:02.191Z,26.90
2023-04-20T14:45:06.246Z,26.50
2023-04-20T14:50:10.199Z,26.30
2023-04-20T14:55:14.919Z,25.90
2023-04-20T15:00:18.839Z,25.40
2023-04-20T15:05:22.245Z,24.90
2023-04-20T15:10:27.087Z,24.30
2023-04-20T15:15:41.578Z,23.80
2023-04-20T15:20:51.943Z,23.40
2023-04-20T15:25:57.034Z,22.90
2023-04-20T15:31:00.361Z,22.70
2023-04-20T15:36:04.016Z,22.40
2023-04-20T15:41:08.869Z,22.00
2023-04-20T15:46:12.224Z,21.60
2023-04-20T15:51:15.605Z,21.40
2023-04-20T15:56:22.803Z,21.10
2023-04-20T16:01:26.268Z,21.00
2023-04-20T16:06:29.700Z,20.80
2023-04-20T16:11:35.005Z,20.50
2023-04-20T16:16:38.346Z,20.30
2023-04-20T16:21:41.898Z,20.10
2023-04-20T16:26:46.815Z,19.90
2023-04-20T16:31:50.463Z,19.70
2023-04-20T16:36:53.908Z,19.50
2023-04-20T16:41:58.701Z,19.40
2023-04-20T16:47:03.219Z,19.40
2023-04-20T16:52:06.968Z,19.50
2023-04-20T16:57:11.654Z,19.40
2023-04-20T17:02:15.465Z,19.20
2023-04-20T17:07:18.894Z,19.00
2023-04-20T17:12:23.527Z,18.80
2023-04-20T17:17:28.392Z,18.60
2023-04-20T17:22:31.981Z,18.60
2023-04-20T17:27:36.746Z,18.60
2023-04-20T17:32:40.301Z,18.50
2023-04-20T17:37:43.779Z,18.40
2023-04-20T17:42:48.519Z,18.20
2023-04-20T17:53:08.843Z,17.80
2023-04-20T17:58:18.027Z,17.60
2023-04-20T18:13:30.539Z,16.80
2023-04-20T18:18:33.862Z,16.50
2023-04-20T18:28:42.360Z,16.10
2023-04-20T18:38:51.258Z,15.90
2023-04-20T18:43:56.454Z,15.60
2023-04-20T18:48:59.836Z,15.40
2023-04-20T18:54:03.149Z,15.20
2023-04-20T18:59:09.027Z,15.10
2023-04-20T19:04:12.512Z,15.00
2023-04-20T19:14:21.132Z,14.80
2023-04-20T19:19:24.611Z,14.70
2023-04-20T19:24:28.000Z,14.40
2023-04-20T19:29:32.952Z,14.40
2023-04-20T19:34:36.258Z,14.30
2023-04-20T19:39:39.545Z,14.20
2023-04-20T19:44:44.255Z,14.10
2023-04-20T19:49:47.636Z,14.00
2023-04-20T19:54:51.093Z,14.00
2023-04-20T20:04:59.374Z,14.10
2023-04-20T20:10:03.078Z,14.00
2023-04-20T20:15:06.605Z,14.10
2023-04-20T20:25:14.997Z,13.90
2023-04-20T20:30:18.434Z,13.70
2023-04-20T20:35:22.663Z,13.40
2023-04-20T20:50:35.070Z,13.10
2023-04-20T20:55:38.520Z,13.10
2023-04-20T21:00:41.999Z,12.90
2023-04-20T21:10:50.414Z,12.70
2023-04-20T21:26:02.475Z,12.50
2023-04-20T21:31:05.945Z,12.30
2023-04-20T21:36:09.397Z,12.40
2023-04-20T21:41:14.142Z,12.30
2023-04-20T21:46:17.586Z,12.20
2023-04-20T21:51:20.974Z,12.10
2023-04-20T21:56:26.930Z,12.00
2023-04-20T22:01:30.537Z,12.00
2023-04-20T22:06:33.941Z,12.00
2023-04-20T22:11:38.746Z,11.90
2023-04-20T22:16:42.196Z,11.90
2023-04-20T22:21:45.545Z,11.90
2023-04-20T22:26:50.211Z,11.80
